Latest Coastal Weather Observations for Noarlunga

IDS60701

Issued at 9:31 am CST Monday 26 June 2017 (issued every 10 minutes, with the page automatically refreshed every 10 minutes)

About coastal observations | Map of coastal stations | Coastal observations for SA | Marine services | Other Formats
Station Details ID: 023885 Name: NOARLUNGA Lat: -35.16 Lon: 138.51 Height: 55.0 m
Data from the previous 72 hours. | See also: Recent months at Noarlunga
Date/Time
CST
Temp
°C
Wind Pressure Rain since
9am
mm
Weather Cloud Vis
km
Sea
Height
m
Swell
Dir  Spd
kts
Gust
kts
hPa Trend Height
m
Period
s
Dir
26/09:30am 11.8 ENE 2 4 - - 0.0 - - - - - - -
26/09:00am 10.0 ENE 1 2 - - 0.6 - - - - - - -
26/08:30am 8.2 NNW 2 3 - - 0.6 - - - - - - -
26/08:00am 8.5 CALM 0 1 - - 0.6 - - - - - - -
26/07:30am 8.6 E 2 3 - - 0.6 - - - - - - -
26/07:00am 9.0 NE 5 7 - - 0.6 - - - - - - -
26/06:30am 9.4 NE 5 7 - - 0.6 - - - - - - -
26/06:00am 9.3 NE 4 5 - - 0.6 - - - - - - -
26/05:30am 9.6 NE 2 3 - - 0.6 - - - - - - -
26/05:00am 9.8 NE 3 4 - - 0.6 - - - - - - -
26/04:30am 9.9 NE 3 5 - - 0.6 - - - - - - -
26/04:00am 9.9 ENE 2 4 - - 0.6 - - - - - - -
26/03:30am 9.9 ENE 2 3 - - 0.6 - - - - - - -
26/03:00am 9.4 NE 4 4 - - 0.6 - - - - - - -
26/02:30am 9.6 ENE 3 5 - - 0.6 - - - - - - -
26/02:00am 9.8 E 1 2 - - 0.6 - - - - - - -
26/01:30am 10.2 NE 2 4 - - 0.6 - - - - - - -
26/01:00am 10.4 SW 1 2 - - 0.6 - - - - - - -
26/12:30am 11.1 WNW 1 2 - - 0.6 - - - - - - -
26/12:00am 11.5 W 3 9 - - 0.6 Recent precip. - - - - - -
 
Date/Time
CST
Temp
°C
Wind Pressure Rain since
9am
mm
Weather Cloud Vis
km
Sea
Height
m
Swell
Dir  Spd
kts
Gust
kts
hPa Trend Height
m
Period
s
Dir
25/11:30pm 11.4 SSW 2 5 - - 0.4 - - - - - - -
25/11:00pm 11.4 NW 3 5 - - 0.4 - - - - - - -
25/10:30pm 11.7 WNW 4 6 - - 0.4 - - - - - - -
25/10:00pm 12.0 WNW 6 9 - - 0.4 - - - - - - -
25/09:30pm 12.6 WNW 7 12 - - 0.4 - - - - - - -
25/09:00pm 12.8 NW 5 7 - - 0.4 - - - - - - -
25/08:30pm 12.5 WNW 6 10 - - 0.4 - - - - - - -
25/08:00pm 12.5 W 5 7 - - 0.4 - - - - - - -
25/07:30pm 13.2 WSW 6 10 - - 0.4 - - - - - - -
25/07:00pm 12.5 SSW 2 3 - - 0.4 - - - - - - -
25/06:30pm 13.4 WSW 9 16 - - 0.4 - - - - - - -
25/06:00pm 12.7 W 5 10 - - 0.4 Recent precip. - - - - - -
25/05:30pm 12.6 W 4 7 - - 0.4 - - - - - - -
25/05:00pm 13.4 WNW 6 10 - - 0.2 - - - - - - -
25/04:30pm 13.7 NW 4 7 - - 0.2 - - - - - - -
25/04:00pm 13.8 WNW 4 6 - - 0.2 - - - - - - -
25/03:30pm 13.0 WNW 4 5 - - 0.2 - - - - - - -
25/03:00pm 13.1 WSW 3 7 - - 0.0 - - - - - - -
25/02:30pm 13.0 W 4 8 - - 0.0 - - - - - - -
25/02:00pm 13.2 W 4 6 - - 0.0 - - - - - - -
25/01:30pm 12.8 WSW 3 8 - - 0.0 - - - - - - -
25/01:00pm 12.7 W 5 9 - - 0.0 - - - - - - -
25/12:30pm 12.4 WSW 9 13 - - 0.0 - - - - - - -
25/12:00pm 12.5 SW 5 9 - - 0.0 - - - - - - -
25/11:30am 12.5 WSW 5 8 - - 0.0 - - - - - - -
25/11:00am 13.0 W 2 3 - - 0.0 - - - - - - -
25/10:30am 12.8 NW 1 3 - - 0.0 - - - - - - -
25/10:00am 12.8 NNE 2 5 - - 0.0 - - - - - - -
25/09:30am 12.8 NNE 2 3 - - 0.0 - - - - - - -
25/09:00am 11.9 NE 3 5 - - 0.6 - - - - - - -
25/08:30am 10.5 NE 4 6 - - 0.6 - - - - - - -
25/08:00am 10.2 NE 5 7 - - 0.6 - - - - - - -
25/07:30am 10.2 NNE 4 5 - - 0.6 - - - - - - -
25/07:00am 10.2 NE 3 4 - - 0.6 - - - - - - -
25/06:30am 10.1 S 3 6 - - 0.6 - - - - - - -
25/06:00am 9.9 NNE 2 4 - - 0.6 - - - - - - -
25/05:30am 9.8 NE 3 4 - - 0.6 - - - - - - -
25/05:00am 10.1 S 2 2 - - 0.6 - - - - - - -
25/04:30am 10.6 NNE 6 9 - - 0.0 - - - - - - -
25/04:00am 9.9 NE 5 6 - - 0.0 - - - - - - -
25/03:30am 9.9 NNE 3 4 - - 0.0 - - - - - - -
25/03:00am 10.0 NNE 4 5 - - 0.0 - - - - - - -
25/02:30am 10.1 N 2 2 - - 0.0 - - - - - - -
25/02:00am 10.4 NE 3 4 - - 0.0 - - - - - - -
25/01:30am 9.9 NE 3 3 - - 0.0 - - - - - - -
25/01:00am 10.4 NE 2 3 - - 0.0 - - - - - - -
25/12:30am 10.1 NE 5 6 - - 0.0 - - - - - - -
25/12:00am 9.7 NE 2 3 - - 0.0 - - - - - - -
 
Date/Time
CST
Temp
°C
Wind Pressure Rain since
9am
mm
Weather Cloud Vis
km
Sea
Height
m
Swell
Dir  Spd
kts
Gust
kts
hPa Trend Height
m
Period
s
Dir
24/11:30pm 10.0 NE 3 4 - - 0.0 - - - - - - -
24/11:00pm 10.2 NE 3 5 - - 0.0 - - - - - - -
24/10:30pm 10.2 E 2 4 - - 0.0 - - - - - - -
24/10:00pm 10.9 NE 2 3 - - 0.0 - - - - - - -
24/09:30pm 11.5 NE 3 4 - - 0.0 - - - - - - -
24/09:00pm 11.5 NE 2 3 - - 0.0 - - - - - - -
24/08:30pm 11.6 E 2 3 - - 0.0 - - - - - - -
24/08:00pm 11.8 E 2 3 - - 0.0 - - - - - - -
24/07:30pm 12.4 SSE 3 4 - - 0.0 - - - - - - -
24/07:00pm 12.7 CALM 0 0 - - 0.0 - - - - - - -
24/06:30pm 13.0 CALM 0 0 - - 0.0 - - - - - - -
24/06:00pm 13.5 CALM 0 1 - - 0.0 - - - - - - -
24/05:30pm 13.7 SW 2 3 - - 0.0 - - - - - - -
24/05:00pm 14.2 WSW 2 3 - - 0.0 - - - - - - -
24/04:30pm 15.2 SW 4 5 - - 0.0 - - - - - - -
24/04:00pm 15.9 W 3 4 - - 0.0 - - - - - - -
24/03:30pm 16.1 W 3 5 - - 0.0 - - - - - - -
24/03:00pm 16.1 WNW 4 6 - - 0.0 - - - - - - -
24/02:30pm 16.1 WNW 4 6 - - 0.0 - - - - - - -
24/02:00pm 16.1 WNW 4 6 - - 0.0 - - - - - - -
24/01:30pm 15.9 WNW 5 7 - - 0.0 - - - - - - -
24/01:00pm 16.2 WNW 6 8 - - 0.0 - - - - - - -
24/12:30pm 16.2 WNW 4 7 - - 0.0 - - - - - - -
24/12:00pm 15.8 WNW 4 6 - - 0.0 - - - - - - -
24/11:30am 15.2 WNW 5 7 - - 0.0 - - - - - - -
24/11:00am 15.4 NNE 2 5 - - 0.0 - - - - - - -
24/10:30am 15.5 E 4 6 - - 0.0 - - - - - - -
24/10:00am 14.8 E 4 8 - - 0.0 - - - - - - -
24/09:30am 13.8 E 4 6 - - 0.0 - - - - - - -
24/09:00am 11.2 ESE 6 7 - - 0.0 - - - - - - -
24/08:30am 10.0 ENE 2 4 - - 0.0 - - - - - - -
24/08:00am 8.9 ENE 3 5 - - 0.0 - - - - - - -
24/07:30am 8.2 E 4 5 - - 0.0 - - - - - - -
24/07:00am 8.5 E 4 5 - - 0.0 - - - - - - -
24/06:30am 8.6 E 2 3 - - 0.0 - - - - - - -
24/06:00am 8.9 E 3 5 - - 0.0 - - - - - - -
24/05:30am 8.5 ESE 4 5 - - 0.0 - - - - - - -
24/05:00am 9.1 ESE 4 5 - - 0.0 - - - - - - -
24/04:30am 9.3 ESE 3 5 - - 0.0 - - - - - - -
24/04:00am 10.1 NE 2 4 - - 0.0 - - - - - - -
24/03:30am 10.3 NE 3 5 - - 0.0 - - - - - - -
24/03:00am 10.8 ENE 4 6 - - 0.0 - - - - - - -
24/02:30am 10.9 NE 6 7 - - 0.0 - - - - - - -
24/02:00am 11.0 NE 3 4 - - 0.0 - - - - - - -
24/01:30am 11.2 NE 4 5 - - 0.0 - - - - - - -
24/01:00am 10.2 NE 4 6 - - 0.0 - - - - - - -
24/12:30am 9.6 NE 4 7 - - 0.0 - - - - - - -
24/12:00am 9.6 NE 2 3 - - 0.0 - - - - - - -
 
Date/Time
CST
Temp
°C
Wind Pressure Rain since
9am
mm
Weather Cloud Vis
km
Sea
Height
m
Swell
Dir  Spd
kts
Gust
kts
hPa Trend Height
m
Period
s
Dir
23/11:30pm 9.8 ENE 4 5 - - 0.0 - - - - - - -
23/11:00pm 9.6 E 2 3 - - 0.0 - - - - - - -
23/10:30pm 10.2 E 3 4 - - 0.0 - - - - - - -
23/10:00pm 10.1 E 2 3 - - 0.0 - - - - - - -
23/09:30pm 9.9 E 3 3 - - 0.0 - - - - - - -
23/09:00pm 9.6 ENE 2 4 - - 0.0 - - - - - - -
23/08:30pm 9.9 ENE 3 4 - - 0.0 - - - - - - -
23/08:00pm 10.2 ENE 2 3 - - 0.0 - - - - - - -
23/07:30pm 10.5 E 2 2 - - 0.0 - - - - - - -
23/07:00pm 11.3 E 2 3 - - 0.0 - - - - - - -
23/06:30pm 11.8 ENE 2 3 - - 0.0 - - - - - - -
23/06:00pm 12.4 NNE 2 3 - - 0.0 - - - - - - -
23/05:30pm 13.5 CALM 0 0 - - 0.0 - - - - - - -
23/05:00pm 15.4 CALM 0 0 - - 0.0 - - - - - - -
23/04:30pm 16.1 NW 1 2 - - 0.0 - - - - - - -
23/04:00pm 15.4 W 2 2 - - 0.0 - - - - - - -
23/03:30pm 16.1 WNW 2 3 - - 0.0 - - - - - - -
23/03:00pm 16.4 WNW 3 4 - - 0.0 - - - - - - -
23/02:30pm 17.1 NW 2 3 - - 0.0 - - - - - - -
23/02:00pm 16.9 NNW 3 5 - - 0.0 - - - - - - -
23/01:30pm 15.9 N 6 9 - - 0.0 - - - - - - -
23/01:00pm 16.8 NNW 5 9 - - 0.0 - - - - - - -
23/12:30pm 16.6 NNW 4 6 - - 0.0 - - - - - - -
23/12:00pm 16.7 NNW 5 7 - - 0.0 - - - - - - -
23/11:30am 16.4 NNW 6 9 - - 0.0 - - - - - - -
23/11:00am 17.1 NNE 4 6 - - 0.0 - - - - - - -
23/10:30am 15.6 N 7 10 - - 0.0 - - - - - - -
23/10:00am 15.1 NE 4 7 - - 0.0 - - - - - - -

Other Formats:

Comma delimited format used in spreadsheet applications
http://www.bom.gov.au/fwo/IDS60701/IDS60701.94808.axf

JavaScript Object Notation format (JSON) in row-major order
http://www.bom.gov.au/fwo/IDS60701/IDS60701.94808.json